Time;durP1;ratioP1;P1;durP2;ratioP2;P2;SDS_P1;SDS_P2;PMS_P1;PMS_P2;Temp;Humidity;BMP_temperature;BMP_pressure;BME280_temperature;BME280_humidity;BME280_pressure;Samples;Min_cycle;Max_cycle;Signal;HPM_P1;HPM_P2
2021/06/22 00:00:59;;;;;;;11.80;4.13;;;17.60;99.90;;;;;;5093256;28;20507;-71
2021/06/22 00:03:25;;;;;;;9.00;4.90;;;17.60;99.90;;;;;;5093395;28;20228;-71
2021/06/22 00:05:50;;;;;;;12.73;5.00;;;17.50;99.90;;;;;;5091597;28;20184;-70
2021/06/22 00:08:16;;;;;;;9.27;4.27;;;17.60;99.90;;;;;;5093297;28;20699;-71
2021/06/22 00:10:42;;;;;;;15.10;4.80;;;17.70;99.90;;;;;;5093095;28;20169;-71
2021/06/22 00:13:07;;;;;;;12.13;4.90;;;17.60;99.90;;;;;;5093283;28;20621;-70
2021/06/22 00:15:33;;;;;;;8.83;4.10;;;17.60;99.90;;;;;;5093125;28;20175;-71
2021/06/22 00:17:59;;;;;;;7.97;3.97;;;17.60;99.90;;;;;;5093242;28;20320;-71
2021/06/22 00:20:25;;;;;;;10.07;3.93;;;17.70;99.90;;;;;;5091025;28;20266;-71
2021/06/22 00:22:52;;;;;;;9.13;3.97;;;17.70;99.90;;;;;;5092517;28;20180;-71
2021/06/22 00:25:19;;;;;;;6.80;3.77;;;17.70;99.90;;;;;;5092857;28;20646;-70
2021/06/22 00:27:45;;;;;;;8.57;4.80;;;17.70;99.90;;;;;;5093581;28;20188;-71
2021/06/22 00:30:12;;;;;;;5.17;3.40;;;17.70;99.90;;;;;;5104950;28;20165;-70
2021/06/22 00:32:38;;;;;;;6.57;3.53;;;17.70;99.90;;;;;;5102898;28;20225;-70
2021/06/22 00:35:05;;;;;;;7.43;3.97;;;17.70;99.90;;;;;;5096759;28;20202;-70
2021/06/22 00:37:30;;;;;;;6.53;3.37;;;17.70;99.90;;;;;;5091096;28;20211;-72
2021/06/22 00:39:56;;;;;;;6.50;3.27;;;17.80;99.90;;;;;;5092675;28;20554;-69
2021/06/22 00:42:21;;;;;;;9.17;3.30;;;17.80;99.90;;;;;;5074010;28;20172;-71
2021/06/22 00:44:58;;;;;;;4.77;2.93;;;17.70;99.90;;;;;;5092423;28;20180;-70
2021/06/22 00:47:25;;;;;;;10.73;3.67;;;17.80;99.90;;;;;;5092210;28;20588;-70
2021/06/22 00:49:52;;;;;;;6.77;3.17;;;17.80;99.90;;;;;;5092549;28;20180;-70
2021/06/22 00:52:23;;;;;;;5.83;2.83;;;17.70;99.90;;;;;;5090003;28;20214;-70
2021/06/22 00:54:50;;;;;;;6.77;3.00;;;17.80;99.90;;;;;;5082912;28;20561;-70
2021/06/22 00:57:17;;;;;;;6.03;3.20;;;17.70;99.90;;;;;;5073031;28;20192;-70
2021/06/22 00:59:43;;;;;;;5.43;2.90;;;17.70;99.90;;;;;;5092468;28;20165;-70
2021/06/22 01:02:08;;;;;;;6.10;2.90;;;17.70;99.90;;;;;;5092075;28;20675;-70
2021/06/22 01:04:35;;;;;;;5.03;2.60;;;17.70;99.90;;;;;;5092039;28;20168;-71
2021/06/22 01:07:02;;;;;;;4.43;2.60;;;17.60;99.90;;;;;;5092010;28;20218;-71
2021/06/22 01:09:30;;;;;;;6.47;3.03;;;17.50;99.90;;;;;;5073766;28;20173;-70
2021/06/22 01:11:57;;;;;;;4.50;2.70;;;17.50;99.90;;;;;;5089669;28;20184;-71
2021/06/22 01:14:24;;;;;;;7.10;3.40;;;17.60;99.90;;;;;;5091879;28;20212;-71
2021/06/22 01:16:49;;;;;;;9.97;3.17;;;17.60;99.90;;;;;;5073656;28;20224;-71
2021/06/22 01:19:15;;;;;;;5.63;2.70;;;17.60;99.90;;;;;;5092019;28;20203;-71
2021/06/22 01:21:41;;;;;;;4.60;2.73;;;17.60;99.90;;;;;;5091840;28;20221;-71
2021/06/22 01:24:08;;;;;;;6.93;2.90;;;17.60;99.90;;;;;;5092333;28;20241;-70
2021/06/22 01:26:35;;;;;;;7.73;3.00;;;17.70;99.90;;;;;;5090060;28;20212;-71
2021/06/22 01:29:07;;;;;;;8.43;3.07;;;17.70;99.90;;;;;;5092414;28;20161;-71
2021/06/22 01:31:33;;;;;;;6.07;2.50;;;17.70;99.90;;;;;;5091756;28;20177;-71
2021/06/22 01:33:59;;;;;;;6.23;2.70;;;17.70;99.90;;;;;;5091812;28;20193;-71
2021/06/22 01:36:27;;;;;;;4.40;3.10;;;17.70;99.90;;;;;;5091685;28;20584;-71
2021/06/22 01:38:53;;;;;;;4.90;2.93;;;17.70;99.90;;;;;;5091323;28;20190;-71
2021/06/22 01:41:18;;;;;;;8.53;3.23;;;17.70;99.90;;;;;;5091182;28;20267;-71
2021/06/22 01:57:12;;;;;;;5.50;3.07;;;17.50;99.90;;;;;;5087890;28;20196;-70
2021/06/22 01:59:41;;;;;;;7.93;3.50;;;17.50;99.90;;;;;;5088882;28;20176;-70
2021/06/22 02:02:07;;;;;;;6.90;3.40;;;17.50;99.90;;;;;;5090856;28;20169;-70
2021/06/22 02:04:35;;;;;;;4.87;3.20;;;17.50;99.90;;;;;;5091131;28;20175;-71
2021/06/22 02:07:00;;;;;;;6.27;3.37;;;17.40;99.90;;;;;;5091016;28;20224;-70
2021/06/22 02:09:26;;;;;;;5.37;3.23;;;17.40;99.90;;;;;;5090513;28;20204;-70
2021/06/22 02:11:51;;;;;;;5.97;3.90;;;17.50;99.90;;;;;;5090673;28;20252;-70
2021/06/22 02:14:17;;;;;;;6.17;3.70;;;17.40;99.90;;;;;;5089040;28;20204;-70
2021/06/22 02:16:43;;;;;;;9.77;4.10;;;17.30;99.90;;;;;;5091145;28;20500;-70
2021/06/22 02:19:08;;;;;;;7.23;4.30;;;17.30;99.90;;;;;;5102346;28;20565;-70
2021/06/22 02:21:34;;;;;;;7.20;4.10;;;17.40;99.90;;;;;;5100519;28;20427;-70
2021/06/22 02:24:00;;;;;;;11.07;4.03;;;17.40;99.90;;;;;;5096247;28;20173;-70
2021/06/22 02:26:25;;;;;;;7.73;4.33;;;17.40;99.90;;;;;;5091016;28;20177;-70
2021/06/22 02:28:51;;;;;;;5.80;3.60;;;17.40;99.90;;;;;;5090962;28;20191;-70
2021/06/22 02:31:17;;;;;;;7.77;3.70;;;17.40;99.90;;;;;;5088506;28;20667;-70
2021/06/22 02:33:42;;;;;;;8.43;3.70;;;17.40;99.90;;;;;;5091001;28;20192;-70
2021/06/22 02:36:08;;;;;;;8.23;4.57;;;17.30;99.90;;;;;;5091054;28;20160;-71
2021/06/22 02:38:34;;;;;;;9.27;3.90;;;17.30;99.90;;;;;;5090954;28;20196;-71
2021/06/22 02:40:59;;;;;;;7.70;4.27;;;17.20;99.90;;;;;;5090513;28;20179;-71
2021/06/22 02:43:25;;;;;;;7.90;4.60;;;17.40;99.90;;;;;;5090881;28;20225;-71
2021/06/22 02:45:50;;;;;;;11.17;4.33;;;17.40;99.90;;;;;;5089071;28;20187;-70
2021/06/22 02:48:16;;;;;;;9.97;4.30;;;17.20;99.90;;;;;;5090467;28;20200;-71
2021/06/22 02:50:42;;;;;;;5.60;4.17;;;17.30;99.90;;;;;;5090418;28;20173;-72
2021/06/22 02:53:09;;;;;;;7.57;3.90;;;17.20;99.90;;;;;;5090925;28;20184;-71
2021/06/22 02:55:35;;;;;;;11.57;4.17;;;17.30;99.90;;;;;;5090862;28;20284;-72
2021/06/22 02:58:01;;;;;;;7.93;4.30;;;17.20;99.90;;;;;;5090755;28;20188;-72
2021/06/22 03:00:29;;;;;;;8.97;3.97;;;17.30;99.90;;;;;;5090408;28;20173;-72
2021/06/22 03:02:55;;;;;;;8.13;3.57;;;17.30;99.90;;;;;;5089285;28;20178;-71
2021/06/22 03:05:21;;;;;;;6.67;3.50;;;17.20;99.90;;;;;;5090515;28;20656;-71
2021/06/22 03:07:47;;;;;;;10.30;4.23;;;17.30;99.90;;;;;;5090203;28;20596;-72
2021/06/22 03:10:16;;;;;;;9.23;3.70;;;17.20;99.90;;;;;;5090333;28;20221;-71
2021/06/22 03:12:41;;;;;;;5.70;3.83;;;17.20;99.90;;;;;;5090185;28;20164;-71
2021/06/22 03:15:10;;;;;;;5.83;3.53;;;17.20;99.90;;;;;;5090200;28;20265;-71
2021/06/22 03:17:35;;;;;;;7.17;3.90;;;17.10;99.90;;;;;;5088934;28;20199;-71
2021/06/22 03:20:06;;;;;;;6.90;3.43;;;17.10;99.90;;;;;;5090854;28;20165;-71
2021/06/22 03:22:32;;;;;;;7.43;3.40;;;17.10;99.90;;;;;;5093971;28;20645;-72
2021/06/22 03:24:58;;;;;;;5.07;3.23;;;17.20;99.90;;;;;;5076399;28;20178;-72
2021/06/22 03:27:24;;;;;;;8.63;3.40;;;17.10;99.90;;;;;;5094349;28;20227;-71
2021/06/22 03:29:49;;;;;;;6.47;2.83;;;17.10;99.90;;;;;;5089269;28;20187;-70
2021/06/22 03:32:15;;;;;;;5.87;3.20;;;17.20;99.90;;;;;;5085197;28;20590;-70
2021/06/22 03:34:41;;;;;;;5.87;3.30;;;17.20;99.90;;;;;;5092243;28;20242;-72
2021/06/22 03:37:07;;;;;;;8.27;3.20;;;17.20;99.90;;;;;;5093568;28;20267;-71
2021/06/22 03:39:33;;;;;;;6.57;3.27;;;17.10;99.90;;;;;;5093808;28;20169;-70
2021/06/22 03:41:59;;;;;;;5.60;2.90;;;17.20;99.90;;;;;;5093457;28;20200;-71
2021/06/22 03:44:25;;;;;;;7.17;3.40;;;17.30;99.90;;;;;;5093909;28;20622;-71
2021/06/22 03:46:50;;;;;;;6.90;2.60;;;17.40;99.90;;;;;;5093504;28;20215;-71
2021/06/22 03:49:16;;;;;;;5.77;2.93;;;17.40;99.90;;;;;;5091383;28;20177;-71
2021/06/22 03:51:42;;;;;;;5.17;3.03;;;17.60;99.90;;;;;;5093213;28;20251;-71
2021/06/22 03:54:07;;;;;;;3.57;2.80;;;17.50;99.90;;;;;;5093357;28;20189;-71
2021/06/22 03:56:33;;;;;;;7.00;2.60;;;17.50;99.90;;;;;;5093189;28;20247;-71
2021/06/22 03:58:58;;;;;;;5.13;2.93;;;17.50;99.90;;;;;;5093465;28;20258;-71
2021/06/22 04:01:24;;;;;;;7.50;2.90;;;17.60;99.90;;;;;;5093087;28;20522;-72
2021/06/22 04:03:49;;;;;;;4.70;2.30;;;17.60;99.90;;;;;;5093149;28;20533;-71
2021/06/22 04:06:16;;;;;;;5.90;2.97;;;17.70;99.90;;;;;;5091752;28;20614;-71
2021/06/22 04:08:42;;;;;;;8.93;2.97;;;17.70;99.90;;;;;;5096971;28;20180;-71
2021/06/22 04:11:08;;;;;;;7.70;3.53;;;17.80;99.90;;;;;;5097684;28;20192;-71
2021/06/22 04:13:33;;;;;;;6.23;2.80;;;17.80;99.90;;;;;;5095765;28;20228;-71
2021/06/22 04:15:59;;;;;;;6.77;3.00;;;17.80;99.90;;;;;;5093014;28;20173;-71
2021/06/22 04:18:25;;;;;;;6.87;3.10;;;17.80;99.90;;;;;;5093080;28;20196;-71
2021/06/22 04:20:50;;;;;;;5.23;2.83;;;17.80;99.90;;;;;;5090806;28;20710;-71
2021/06/22 04:23:16;;;;;;;6.27;2.83;;;17.80;99.90;;;;;;5093907;28;20165;-71
2021/06/22 04:25:43;;;;;;;6.70;2.93;;;17.70;99.90;;;;;;5093893;28;20230;-70
2021/06/22 04:28:08;;;;;;;7.07;3.20;;;17.70;99.90;;;;;;5096878;28;20275;-70
2021/06/22 04:30:35;;;;;;;7.43;3.63;;;17.70;99.90;;;;;;5100000;28;20199;-71
2021/06/22 04:33:01;;;;;;;8.23;3.40;;;17.80;99.90;;;;;;5100224;28;20175;-71
2021/06/22 04:35:30;;;;;;;10.70;4.50;;;17.90;99.90;;;;;;5096154;28;20678;-71
2021/06/22 04:37:58;;;;;;;6.57;3.90;;;17.90;99.90;;;;;;5090692;28;20200;-71
2021/06/22 04:40:23;;;;;;;8.67;3.70;;;17.90;99.90;;;;;;5092552;28;20659;-69
2021/06/22 04:42:49;;;;;;;6.13;3.60;;;17.90;99.90;;;;;;5092846;28;20255;-70
2021/06/22 04:45:14;;;;;;;8.47;3.70;;;18.10;99.90;;;;;;5092710;28;20168;-70
2021/06/22 04:47:40;;;;;;;10.70;3.33;;;18.00;99.90;;;;;;5122183;22;20671;-68
2021/06/22 04:50:06;;;;;;;6.10;3.40;;;18.10;99.90;;;;;;5112770;28;20164;-68
2021/06/22 04:52:33;;;;;;;8.30;3.40;;;18.00;99.90;;;;;;5110118;28;20179;-68
2021/06/22 04:54:58;;;;;;;8.30;3.40;;;18.00;99.90;;;;;;5112924;28;20303;-68
2021/06/22 04:57:24;;;;;;;7.27;3.60;;;18.10;99.90;;;;;;5113113;28;20225;-68
2021/06/22 04:59:50;;;;;;;8.13;3.63;;;18.20;99.90;;;;;;5112960;28;20167;-68
2021/06/22 05:02:15;;;;;;;8.00;3.77;;;18.10;99.90;;;;;;5113029;28;20160;-68
2021/06/22 05:04:41;;;;;;;8.40;3.73;;;18.20;99.90;;;;;;5094694;28;20172;-68
2021/06/22 05:07:06;;;;;;;8.23;3.57;;;18.00;99.90;;;;;;5112643;28;20191;-69
2021/06/22 05:09:32;;;;;;;9.73;3.83;;;17.90;99.90;;;;;;5110220;27;20188;-67
2021/06/22 05:11:57;;;;;;;7.03;3.47;;;17.90;99.90;;;;;;5112354;28;20228;-68
2021/06/22 05:14:23;;;;;;;7.60;3.50;;;17.90;99.90;;;;;;5112601;28;20230;-68
2021/06/22 05:16:49;;;;;;;11.50;3.93;;;18.00;99.90;;;;;;5111140;28;20178;-68
2021/06/22 05:19:15;;;;;;;5.80;3.33;;;18.00;99.90;;;;;;5104248;28;20511;-68
2021/06/22 05:21:40;;;;;;;7.03;3.87;;;18.10;99.90;;;;;;5109851;28;20608;-67
2021/06/22 05:24:06;;;;;;;11.20;3.80;;;18.10;99.90;;;;;;5096806;28;20179;-68
2021/06/22 05:26:32;;;;;;;7.07;3.60;;;17.90;99.90;;;;;;5111626;28;20183;-68
2021/06/22 05:28:57;;;;;;;8.13;4.03;;;18.00;99.90;;;;;;5111994;28;20195;-68
2021/06/22 05:31:23;;;;;;;9.03;3.97;;;17.90;99.90;;;;;;5103850;28;20192;-68
2021/06/22 05:33:48;;;;;;;8.17;3.93;;;17.90;99.90;;;;;;5108045;28;20286;-69
2021/06/22 05:36:14;;;;;;;9.53;4.30;;;17.80;99.90;;;;;;5112267;28;20625;-68
2021/06/22 05:38:39;;;;;;;8.70;3.70;;;17.60;99.90;;;;;;5109696;28;20195;-68
2021/06/22 05:41:05;;;;;;;8.00;3.90;;;17.50;99.90;;;;;;5107065;28;20275;-67
2021/06/22 05:43:30;;;;;;;5.40;3.10;;;17.60;99.90;;;;;;5109617;28;20182;-68
2021/06/22 05:45:56;;;;;;;8.83;3.63;;;17.70;99.90;;;;;;5109928;28;20171;-68
2021/06/22 05:48:22;;;;;;;7.57;3.63;;;17.20;99.90;;;;;;5111626;28;20221;-69
2021/06/22 05:50:47;;;;;;;6.33;3.13;;;17.10;99.90;;;;;;5101997;28;20183;-69
2021/06/22 05:53:13;;;;;;;6.73;3.87;;;17.20;99.90;;;;;;5092626;28;20169;-69
2021/06/22 05:55:38;;;;;;;8.13;3.67;;;17.30;99.90;;;;;;5091944;28;20649;-69
2021/06/22 05:58:04;;;;;;;8.20;3.60;;;17.30;99.90;;;;;;5097679;28;20216;-66
2021/06/22 06:00:31;;;;;;;5.43;3.13;;;17.40;99.90;;;;;;5091728;28;20169;-69
2021/06/22 06:02:57;;;;;;;7.00;3.70;;;17.40;99.90;;;;;;5091898;28;20176;-69
2021/06/22 06:05:23;;;;;;;6.73;3.37;;;17.50;99.90;;;;;;5092733;28;20225;-68
2021/06/22 06:07:49;;;;;;;5.43;3.30;;;17.50;99.90;;;;;;5075229;28;20659;-69
2021/06/22 06:10:15;;;;;;;8.77;4.20;;;17.50;99.90;;;;;;5092938;28;20251;-69
2021/06/22 06:12:41;;;;;;;12.40;4.03;;;17.80;99.90;;;;;;5093647;28;20311;-69
2021/06/22 06:15:08;;;;;;;6.20;3.30;;;17.90;99.90;;;;;;5091698;28;20285;-68
2021/06/22 06:17:34;;;;;;;7.80;4.00;;;18.00;99.90;;;;;;5092067;28;20215;-68
2021/06/22 06:20:01;;;;;;;11.40;3.90;;;18.10;99.90;;;;;;5091821;28;20156;-69
2021/06/22 06:22:26;;;;;;;7.07;3.23;;;18.10;99.90;;;;;;5091257;28;20225;-69
2021/06/22 06:24:54;;;;;;;8.23;3.80;;;18.30;99.90;;;;;;5091286;28;20180;-69
2021/06/22 06:27:25;;;;;;;10.07;4.07;;;18.40;99.90;;;;;;5091975;28;20195;-69
2021/06/22 06:30:00;;;;;;;8.50;3.47;;;18.50;99.90;;;;;;5091416;28;20659;-68
2021/06/22 06:32:25;;;;;;;8.73;4.07;;;18.30;99.90;;;;;;5073912;28;20176;-68
2021/06/22 06:34:51;;;;;;;11.13;3.60;;;18.20;99.90;;;;;;5091170;28;20188;-69
2021/06/22 06:37:17;;;;;;;10.13;4.10;;;18.30;99.90;;;;;;5091389;28;20616;-69
2021/06/22 06:39:43;;;;;;;8.57;3.77;;;18.60;99.90;;;;;;5091424;28;20243;-69
2021/06/22 06:42:09;;;;;;;5.27;3.63;;;18.90;99.90;;;;;;5091482;28;20176;-69
2021/06/22 06:44:34;;;;;;;7.77;3.50;;;19.30;99.90;;;;;;5073525;28;20221;-69
2021/06/22 06:47:00;;;;;;;8.93;3.73;;;19.40;99.90;;;;;;5091366;28;20682;-69
2021/06/22 06:49:26;;;;;;;5.90;3.43;;;19.70;99.90;;;;;;5091542;28;20176;-69
2021/06/22 06:51:51;;;;;;;6.67;3.30;;;19.70;99.90;;;;;;5098344;28;20196;-69
2021/06/22 06:54:16;;;;;;;6.00;3.00;;;19.80;99.90;;;;;;5099750;28;20268;-68
2021/06/22 06:56:42;;;;;;;7.63;3.60;;;19.40;99.90;;;;;;5093020;28;20640;-69
2021/06/22 06:59:08;;;;;;;7.90;2.83;;;19.60;99.90;;;;;;5083811;28;20164;-69
2021/06/22 07:01:33;;;;;;;5.93;2.70;;;19.50;99.90;;;;;;5102982;28;20698;-69
2021/06/22 07:03:59;;;;;;;5.30;2.80;;;19.60;99.90;;;;;;5085404;28;20210;-69
2021/06/22 07:06:25;;;;;;;6.13;2.73;;;19.40;99.90;;;;;;5115357;28;20541;-69
2021/06/22 07:08:51;;;;;;;4.83;2.57;;;19.30;99.90;;;;;;5115183;28;20196;-69
2021/06/22 07:11:20;;;;;;;5.40;2.90;;;19.40;99.90;;;;;;5114640;28;20678;-69
2021/06/22 07:13:46;;;;;;;6.70;2.43;;;19.50;99.90;;;;;;5097508;28;20190;-69
2021/06/22 07:16:12;;;;;;;5.63;2.50;;;19.10;99.90;;;;;;5115499;28;20184;-69
2021/06/22 07:18:37;;;;;;;6.70;2.30;;;19.30;99.90;;;;;;5095599;28;20227;-69
2021/06/22 07:21:03;;;;;;;3.83;2.30;;;19.80;99.90;;;;;;5115143;28;20211;-70
2021/06/22 07:23:29;;;;;;;5.13;2.60;;;19.80;99.90;;;;;;5115693;28;20244;-69
2021/06/22 07:25:55;;;;;;;4.23;2.33;;;20.00;99.90;;;;;;5115654;28;20542;-68
2021/06/22 07:28:21;;;;;;;8.87;2.70;;;19.70;99.90;;;;;;5115691;28;20188;-67
2021/06/22 07:30:46;;;;;;;5.13;1.93;;;19.50;99.90;;;;;;5114474;28;20165;-69
2021/06/22 07:33:12;;;;;;;4.70;2.30;;;19.80;99.90;;;;;;5114764;28;20246;-68
2021/06/22 07:35:37;;;;;;;6.67;2.33;;;19.60;99.90;;;;;;5114814;28;20231;-70
2021/06/22 07:38:04;;;;;;;6.83;2.40;;;19.90;99.90;;;;;;5114858;28;20183;-69
2021/06/22 07:40:30;;;;;;;5.53;2.60;;;20.20;99.90;;;;;;5114759;28;20255;-68
2021/06/22 07:42:56;;;;;;;4.93;2.50;;;20.10;99.90;;;;;;5115595;28;20211;-70
2021/06/22 07:45:23;;;;;;;6.23;2.50;;;20.30;99.90;;;;;;5115137;28;20177;-69
2021/06/22 07:47:49;;;;;;;4.73;2.50;;;20.10;99.90;;;;;;5115025;28;20291;-70
2021/06/22 07:50:15;;;;;;;4.53;2.63;;;19.40;99.90;;;;;;5115337;28;20180;-68
2021/06/22 07:52:42;;;;;;;4.73;2.60;;;19.10;99.90;;;;;;5119982;28;20183;-69
2021/06/22 07:55:14;;;;;;;4.80;3.13;;;19.40;99.90;;;;;;5116101;28;20251;-69
2021/06/22 07:57:45;;;;;;;6.47;3.23;;;19.60;99.90;;;;;;5096878;28;20292;-69
2021/06/22 08:00:24;;;;;;;7.23;3.23;;;19.90;99.90;;;;;;5113722;28;20646;-69
2021/06/22 08:02:49;;;;;;;8.80;3.30;;;20.30;99.90;;;;;;5114751;28;20652;-69
2021/06/22 08:05:15;;;;;;;6.63;3.40;;;20.40;99.90;;;;;;5113914;28;20178;-69
2021/06/22 08:07:40;;;;;;;8.37;2.97;;;20.40;99.90;;;;;;5115815;28;20282;-69
2021/06/22 08:10:07;;;;;;;6.67;3.20;;;20.50;99.90;;;;;;5115140;28;20179;-69
2021/06/22 08:12:32;;;;;;;5.37;2.87;;;20.20;99.90;;;;;;5110579;28;20188;-68
2021/06/22 08:14:58;;;;;;;4.17;2.37;;;20.20;99.90;;;;;;5076229;28;20206;-70
2021/06/22 08:17:23;;;;;;;5.47;3.23;;;20.30;99.90;;;;;;5093957;28;20201;-71
2021/06/22 08:19:49;;;;;;;4.50;2.50;;;20.50;99.90;;;;;;5094203;28;20199;-70
2021/06/22 08:22:14;;;;;;;7.20;3.40;;;20.50;99.90;;;;;;5105509;28;20205;-69
2021/06/22 08:24:40;;;;;;;5.17;2.70;;;20.70;99.90;;;;;;5114606;28;20169;-69
2021/06/22 08:27:06;;;;;;;6.37;3.17;;;20.60;99.90;;;;;;5114547;28;20379;-69
2021/06/22 08:29:31;;;;;;;6.67;3.53;;;20.30;99.90;;;;;;5114571;28;20184;-69
2021/06/22 08:31:57;;;;;;;7.10;2.80;;;20.30;99.90;;;;;;5113840;28;20164;-70
2021/06/22 08:34:22;;;;;;;6.30;2.90;;;20.50;99.90;;;;;;5113980;28;20721;-69
2021/06/22 08:36:48;;;;;;;5.63;2.90;;;20.50;99.90;;;;;;5094665;28;20267;-70
2021/06/22 08:39:13;;;;;;;7.13;2.57;;;20.70;99.90;;;;;;5114453;28;20590;-70
2021/06/22 08:41:39;;;;;;;6.30;3.10;;;20.50;99.90;;;;;;5113756;28;20223;-70
2021/06/22 08:44:08;;;;;;;4.97;2.33;;;20.40;99.90;;;;;;5113835;28;20173;-71
2021/06/22 08:46:35;;;;;;;3.77;2.13;;;19.90;99.90;;;;;;5113805;28;20176;-69
2021/06/22 08:49:02;;;;;;;7.47;2.97;;;20.20;99.90;;;;;;5112955;28;20613;-69
2021/06/22 08:51:29;;;;;;;4.07;2.90;;;20.10;99.90;;;;;;5095223;28;20664;-67
2021/06/22 08:53:55;;;;;;;7.50;2.50;;;20.40;99.90;;;;;;5111932;28;20192;-68
2021/06/22 08:56:24;;;;;;;6.40;2.67;;;20.90;99.90;;;;;;5102871;28;20192;-68
2021/06/22 08:58:50;;;;;;;4.53;2.50;;;21.50;99.90;;;;;;5095440;28;20191;-68
2021/06/22 09:01:16;;;;;;;4.63;3.33;;;21.60;99.90;;;;;;5096736;28;20180;-67
2021/06/22 09:03:41;;;;;;;7.40;3.07;;;21.90;99.90;;;;;;5113502;28;20175;-68
2021/06/22 09:06:07;;;;;;;6.13;2.80;;;21.50;99.90;;;;;;5112820;28;20172;-67
2021/06/22 09:08:34;;;;;;;4.53;3.07;;;21.80;99.90;;;;;;5106062;28;20206;-68
2021/06/22 09:11:11;;;;;;;6.40;3.00;;;21.80;99.90;;;;;;5101190;28;20179;-69
2021/06/22 09:13:39;;;;;;;5.20;3.17;;;22.00;99.90;;;;;;5108880;28;20182;-68
2021/06/22 09:16:09;;;;;;;6.72;2.78;;;22.00;99.90;;;;;;5110452;28;20165;-68
2021/06/22 09:18:34;;;;;;;6.20;2.90;;;21.60;99.90;;;;;;5113827;28;20194;-69
2021/06/22 09:21:03;;;;;;;4.25;2.60;;;21.20;99.90;;;;;;5114137;28;20266;-68
2021/06/22 09:23:31;;;;;;;5.40;2.75;;;21.20;99.90;;;;;;5114021;28;20181;-69
2021/06/22 09:25:58;;;;;;;7.07;2.90;;;21.50;99.90;;;;;;5116190;28;20166;-69
2021/06/22 09:28:29;;;;;;;6.78;2.53;;;20.90;99.90;;;;;;5103757;28;20218;-69
2021/06/22 09:31:02;;;;;;;5.00;3.27;;;21.20;99.90;;;;;;5094846;28;20169;-69
2021/06/22 09:33:40;;;;;;;7.43;3.07;;;20.60;99.90;;;;;;5113593;28;20568;-69
2021/06/22 09:36:16;;;;;;;7.80;3.80;;;21.00;99.90;;;;;;5100256;27;20571;-70
2021/06/22 09:38:43;;;;;;;5.73;2.57;;;21.30;99.90;;;;;;5074637;28;20189;-69
2021/06/22 09:41:18;;;;;;;8.47;3.03;;;21.00;99.90;;;;;;5075699;28;20173;-69
2021/06/22 09:43:50;;;;;;;4.90;2.60;;;21.00;99.90;;;;;;5094729;28;20175;-70
2021/06/22 09:46:17;;;;;;;6.43;2.67;;;21.10;99.90;;;;;;5095915;28;20165;-70
2021/06/22 09:48:53;;;;;;;4.40;2.53;;;21.10;99.90;;;;;;5116175;28;20302;-70
2021/06/22 09:51:23;;;;;;;4.83;2.20;;;21.30;99.90;;;;;;5092285;28;20320;-70
2021/06/22 09:53:48;;;;;;;8.77;3.00;;;21.20;99.90;;;;;;5094046;28;20170;-70
2021/06/22 09:56:25;;;;;;;7.53;2.93;;;21.20;99.90;;;;;;5105477;28;20175;-69
2021/06/22 09:58:51;;;;;;;5.97;2.93;;;20.90;99.90;;;;;;5112165;28;20193;-69
2021/06/22 10:01:30;;;;;;;8.50;3.13;;;21.00;99.90;;;;;;5112646;28;20160;-69
2021/06/22 10:04:11;;;;;;;6.27;2.90;;;21.40;99.90;;;;;;5113193;28;20172;-70
2021/06/22 10:06:37;;;;;;;7.35;2.90;;;21.70;99.90;;;;;;5100335;28;20184;-69
2021/06/22 10:09:03;;;;;;;5.57;2.73;;;21.30;99.90;;;;;;5102926;28;20544;-70
2021/06/22 10:11:39;;;;;;;9.60;3.35;;;21.70;99.90;;;;;;5092530;28;20182;-69
2021/06/22 10:14:09;;;;;;;5.40;2.67;;;21.50;99.90;;;;;;5100414;28;20188;-69
2021/06/22 10:16:35;;;;;;;5.68;2.97;;;21.10;99.90;;;;;;5094547;28;20639;-70
2021/06/22 10:19:05;;;;;;;7.95;2.92;;;21.30;99.90;;;;;;5099436;28;20199;-70
2021/06/22 10:21:33;;;;;;;5.15;2.67;;;21.70;99.90;;;;;;5092151;28;20635;-69
2021/06/22 10:24:00;;;;;;;6.97;2.85;;;22.30;99.90;;;;;;5091913;28;20191;-70
2021/06/22 10:26:29;;;;;;;9.10;3.22;;;22.20;99.90;;;;;;5074584;28;20204;-70
2021/06/22 10:29:02;;;;;;;7.07;3.45;;;21.80;99.90;;;;;;5091927;28;20225;-70
2021/06/22 10:31:32;;;;;;;3.42;2.45;;;22.20;99.90;;;;;;5092037;28;20260;-70
2021/06/22 10:33:58;;;;;;;5.10;2.95;;;22.30;99.90;;;;;;5092425;28;20195;-70
2021/06/22 10:36:50;;;;;;;7.95;3.20;;;22.50;99.90;;;;;;5092653;28;20246;-69
2021/06/22 10:39:22;;;;;;;4.45;2.35;;;22.10;99.90;;;;;;5088224;28;20190;-69
2021/06/22 10:41:49;;;;;;;7.15;2.70;;;22.10;99.90;;;;;;5091938;28;20641;-70
2021/06/22 10:44:24;;;;;;;3.85;2.58;;;22.40;99.90;;;;;;5091937;28;20169;-70
2021/06/22 10:49:58;;;;;;;6.18;2.60;;;22.10;99.90;;;;;;5111680;22;20774;-71
2021/06/22 10:52:42;;;;;;;3.83;1.90;;;21.90;99.90;;;;;;5090390;28;20173;-72
2021/06/22 10:55:18;;;;;;;8.93;2.80;;;21.40;99.90;;;;;;5091143;28;20624;-72
2021/06/22 10:58:02;;;;;;;7.32;2.85;;;21.50;99.90;;;;;;5095175;28;20595;-72
2021/06/22 11:00:30;;;;;;;10.18;3.40;;;21.40;99.90;;;;;;5111758;28;20173;-72
2021/06/22 11:02:58;;;;;;;3.53;1.85;;;21.70;99.90;;;;;;5112287;28;20226;-73
2021/06/22 11:05:24;;;;;;;8.98;2.78;;;21.60;99.90;;;;;;5112151;28;20181;-73
2021/06/22 11:08:08;;;;;;;4.53;2.53;;;21.50;99.90;;;;;;5111620;28;20262;-73
2021/06/22 11:10:35;;;;;;;8.48;2.67;;;21.30;99.90;;;;;;5107981;28;20184;-62
2021/06/22 11:13:00;;;;;;;6.70;2.45;;;21.60;99.90;;;;;;5110716;28;20178;-68
2021/06/22 11:15:52;;;;;;;6.82;2.95;;;21.80;99.90;;;;;;5109262;28;20202;-62
2021/06/22 11:18:18;;;;;;;6.82;2.45;;;22.20;99.90;;;;;;5110565;28;20220;-62
2021/06/22 11:21:05;;;;;;;7.05;2.60;;;21.80;99.90;;;;;;5110178;28;20169;-68
2021/06/22 11:23:51;;;;;;;5.32;2.42;;;22.20;99.90;;;;;;5112449;28;20250;-72
2021/06/22 11:26:17;;;;;;;9.45;2.65;;;22.30;99.90;;;;;;5098098;28;20186;-72
2021/06/22 11:28:52;;;;;;;6.82;2.53;;;21.70;99.90;;;;;;5113742;28;20195;-72
2021/06/22 11:31:31;;;;;;;3.30;2.35;;;21.30;99.90;;;;;;5113106;28;20177;-73
2021/06/22 11:34:24;;;;;;;5.60;2.42;;;21.80;99.90;;;;;;5112288;28;20296;-73
2021/06/22 11:36:55;;;;;;;7.43;2.67;;;22.20;99.90;;;;;;5099312;28;20215;-73
2021/06/22 11:39:29;;;;;;;9.43;2.25;;;22.20;99.90;;;;;;5111405;28;20195;-74
2021/06/22 11:42:10;;;;;;;6.30;2.78;;;22.00;99.90;;;;;;5093566;28;20263;-72
2021/06/22 11:45:03;;;;;;;6.65;2.80;;;22.00;99.90;;;;;;5105732;28;20192;-73
2021/06/22 11:47:31;;;;;;;6.00;2.55;;;22.00;99.90;;;;;;5091924;28;20270;-73
2021/06/22 11:50:17;;;;;;;6.80;2.20;;;22.20;99.90;;;;;;5117020;28;20303;-73
2021/06/22 11:52:45;;;;;;;6.75;2.60;;;22.40;99.90;;;;;;5120976;28;20181;-70
2021/06/22 11:55:16;;;;;;;8.27;2.80;;;23.10;99.90;;;;;;5139007;27;20229;-70
2021/06/22 11:57:45;;;;;;;7.80;2.58;;;23.10;99.90;;;;;;5120455;28;20203;-72
2021/06/22 12:00:15;;;;;;;8.45;2.85;;;22.80;99.90;;;;;;5119412;28;20181;-71
2021/06/22 12:02:52;;;;;;;7.60;3.03;;;22.20;99.90;;;;;;5119314;28;20175;-71
2021/06/22 12:05:19;;;;;;;7.03;2.45;;;21.60;99.90;;;;;;5118490;28;20288;-73
2021/06/22 12:07:59;;;;;;;7.05;2.92;;;21.10;99.90;;;;;;5113247;28;20217;-73
2021/06/22 12:10:47;;;;;;;7.97;2.83;;;21.30;99.90;;;;;;5107347;28;20547;-73
2021/06/22 12:13:26;;;;;;;7.35;2.03;;;21.40;99.90;;;;;;5103931;28;20173;-73
2021/06/22 12:15:52;;;;;;;3.57;2.33;;;21.30;99.90;;;;;;5101636;28;20197;-73
2021/06/22 12:18:18;;;;;;;5.25;2.08;;;21.70;99.90;;;;;;5102522;28;20199;-73
2021/06/22 12:20:45;;;;;;;5.13;2.63;;;22.30;99.90;;;;;;5101517;28;20171;-73
2021/06/22 12:23:16;;;;;;;4.28;2.10;;;22.40;99.90;;;;;;5100689;28;20166;-73
2021/06/22 12:25:45;;;;;;;7.20;2.40;;;22.20;99.90;;;;;;5100622;28;20174;-73
2021/06/22 12:28:11;;;;;;;4.97;2.33;;;22.40;99.90;;;;;;5100125;28;20235;-73
2021/06/22 12:30:42;;;;;;;5.50;2.67;;;22.70;99.90;;;;;;5099960;28;20198;-72
2021/06/22 12:33:22;;;;;;;7.38;2.67;;;23.10;99.90;;;;;;5108768;28;20173;-72
2021/06/22 12:35:50;;;;;;;4.00;2.00;;;22.90;99.90;;;;;;5116388;28;20200;-73
2021/06/22 12:38:19;;;;;;;4.47;2.10;;;22.20;99.90;;;;;;5116952;28;20266;-73
2021/06/22 12:41:02;;;;;;;6.18;2.15;;;21.70;99.90;;;;;;5115593;28;20203;-73
2021/06/22 12:43:46;;;;;;;6.23;2.30;;;21.50;99.90;;;;;;5116175;28;20255;-73
2021/06/22 12:46:15;;;;;;;4.97;2.28;;;22.00;99.90;;;;;;5116695;28;20218;-72
2021/06/22 12:48:42;;;;;;;4.70;2.10;;;22.40;99.90;;;;;;5114571;28;20211;-73
2021/06/22 12:51:09;;;;;;;4.37;2.00;;;22.90;99.90;;;;;;5114666;28;20170;-74
2021/06/22 12:53:35;;;;;;;5.03;1.80;;;23.00;99.90;;;;;;5113870;28;20176;-73
2021/06/22 12:56:10;;;;;;;5.20;2.30;;;23.10;99.90;;;;;;5114343;28;20625;-74
2021/06/22 12:58:52;;;;;;;4.07;1.85;;;22.80;99.90;;;;;;5117765;28;20184;-73
2021/06/22 13:01:31;;;;;;;6.25;2.17;;;22.20;99.90;;;;;;5114825;28;20173;-73
2021/06/22 13:03:58;;;;;;;5.40;2.13;;;21.60;99.90;;;;;;5113542;28;20176;-74
2021/06/22 13:06:29;;;;;;;3.87;1.90;;;21.80;99.90;;;;;;5113757;28;20255;-73